createdAt,value
2019-03-26T00:02:06.686Z,2.72
2019-03-26T00:04:35.376Z,2.60
2019-03-26T00:07:04.030Z,3.95
2019-03-26T00:09:32.743Z,2.85
2019-03-26T00:12:01.402Z,2.90
2019-03-26T00:14:30.117Z,3.98
2019-03-26T00:16:58.729Z,3.95
2019-03-26T00:19:27.386Z,3.75
2019-03-26T00:21:55.997Z,4.95
2019-03-26T00:24:24.757Z,3.75
2019-03-26T00:26:53.370Z,4.12
2019-03-26T00:29:22.025Z,3.55
2019-03-26T00:31:50.676Z,4.60
2019-03-26T00:34:19.867Z,4.37
2019-03-26T00:36:48.629Z,5.20
2019-03-26T00:39:17.285Z,3.20
2019-03-26T00:41:45.947Z,4.67
2019-03-26T00:44:14.560Z,3.15
2019-03-26T00:46:43.217Z,4.45
2019-03-26T00:49:11.875Z,5.12
2019-03-26T00:51:40.533Z,3.87
2019-03-26T00:54:09.135Z,3.70
2019-03-26T00:56:37.870Z,4.60
2019-03-26T00:59:06.572Z,3.42
2019-03-26T01:01:35.290Z,2.90
2019-03-26T01:04:04.018Z,5.30
2019-03-26T01:06:32.625Z,4.62
2019-03-26T01:09:01.288Z,4.97
2019-03-26T01:11:29.888Z,4.05
2019-03-26T01:13:58.582Z,4.37
2019-03-26T01:16:27.193Z,3.92
2019-03-26T01:18:55.955Z,4.05
2019-03-26T01:21:24.563Z,4.78
2019-03-26T01:23:53.215Z,4.70
2019-03-26T01:26:21.875Z,4.92
2019-03-26T01:28:50.530Z,4.60
2019-03-26T01:31:19.138Z,4.50
2019-03-26T01:33:47.796Z,5.65
2019-03-26T01:36:16.446Z,6.22
2019-03-26T01:38:45.057Z,4.08
2019-03-26T01:41:13.825Z,3.90
2019-03-26T01:43:42.436Z,6.72
2019-03-26T01:46:11.047Z,6.22
2019-03-26T01:48:39.700Z,4.80
2019-03-26T01:51:08.365Z,6.67
2019-03-26T01:53:37.015Z,5.55
2019-03-26T01:56:05.690Z,5.47
2019-03-26T01:58:34.350Z,7.12
2019-03-26T02:01:03.129Z,7.50
2019-03-26T02:03:31.784Z,6.67
2019-03-26T02:06:00.394Z,7.70
2019-03-26T02:08:29.051Z,8.98
2019-03-26T02:10:57.661Z,8.30
2019-03-26T02:13:26.267Z,8.95
2019-03-26T02:15:54.911Z,8.68
2019-03-26T02:18:23.520Z,7.28
2019-03-26T02:20:52.129Z,8.30
2019-03-26T02:23:20.785Z,8.13
2019-03-26T02:25:49.442Z,8.10
2019-03-26T02:28:18.051Z,8.20
2019-03-26T02:30:46.830Z,9.48
2019-03-26T02:33:15.441Z,6.65
2019-03-26T02:35:44.087Z,7.78
2019-03-26T02:38:12.765Z,9.55
2019-03-26T02:40:41.437Z,10.58
2019-03-26T02:43:10.049Z,8.53
2019-03-26T02:45:38.847Z,10.60
2019-03-26T02:48:07.569Z,8.00
2019-03-26T02:50:36.177Z,8.35
2019-03-26T02:53:08.498Z,9.00
2019-03-26T02:55:35.168Z,7.80
2019-03-26T02:58:03.831Z,9.08
2019-03-26T03:00:32.507Z,8.28
2019-03-26T03:03:01.111Z,8.00
2019-03-26T03:05:35.713Z,8.30
2019-03-26T03:08:00.095Z,9.93
2019-03-26T03:10:28.750Z,7.62
2019-03-26T03:12:57.512Z,8.35
2019-03-26T03:15:26.306Z,9.18
2019-03-26T03:17:54.906Z,8.08
2019-03-26T03:20:23.632Z,6.95
2019-03-26T03:22:52.246Z,8.23
2019-03-26T03:25:20.968Z,8.50
2019-03-26T03:27:49.652Z,8.08
2019-03-26T03:30:18.917Z,7.45
2019-03-26T03:32:47.525Z,7.10
2019-03-26T03:35:16.362Z,7.47
2019-03-26T03:37:45.020Z,8.93
2019-03-26T03:40:14.036Z,7.78
2019-03-26T03:42:42.963Z,8.15
2019-03-26T03:45:12.576Z,8.88
2019-03-26T03:47:42.570Z,8.40
2019-03-26T03:50:12.822Z,7.10
2019-03-26T03:52:41.721Z,8.75
2019-03-26T03:55:11.337Z,8.23
2019-03-26T03:57:40.322Z,8.28
2019-03-26T04:00:31.462Z,8.30
2019-03-26T04:03:01.067Z,8.60
2019-03-26T04:05:29.671Z,7.37
2019-03-26T04:07:58.325Z,9.33
2019-03-26T04:10:27.050Z,8.53
2019-03-26T04:12:55.782Z,7.45
2019-03-26T04:15:24.449Z,8.38
2019-03-26T04:17:53.048Z,7.15
2019-03-26T04:20:21.702Z,6.53
2019-03-26T04:22:50.333Z,7.87
2019-03-26T04:25:18.994Z,7.85
2019-03-26T04:27:47.592Z,6.15
2019-03-26T04:30:28.520Z,6.95
2019-03-26T04:32:57.171Z,6.33
2019-03-26T04:35:25.839Z,7.97
2019-03-26T04:37:54.438Z,7.15
2019-03-26T04:40:23.038Z,5.65
2019-03-26T04:42:51.694Z,5.20
2019-03-26T04:45:20.298Z,5.62
2019-03-26T04:47:48.942Z,6.60
2019-03-26T04:50:17.551Z,5.97
2019-03-26T04:52:46.203Z,4.87
2019-03-26T04:55:14.806Z,6.15
2019-03-26T04:57:43.458Z,6.95
2019-03-26T05:00:13.502Z,6.80
2019-03-26T05:02:42.152Z,6.10
2019-03-26T05:05:12.318Z,6.12
2019-03-26T05:07:41.224Z,6.70
2019-03-26T05:10:10.213Z,6.65
2019-03-26T05:12:38.819Z,5.95
2019-03-26T05:15:08.079Z,5.37
2019-03-26T05:17:36.687Z,4.85
2019-03-26T05:20:07.546Z,6.08
2019-03-26T05:22:36.618Z,5.83
2019-03-26T05:25:08.490Z,5.58
2019-03-26T05:27:45.363Z,8.23
2019-03-26T05:30:08.411Z,6.28
2019-03-26T05:32:37.399Z,6.30
2019-03-26T05:35:07.974Z,5.67
2019-03-26T05:37:36.700Z,5.90
2019-03-26T05:40:08.281Z,6.15
2019-03-26T05:42:37.784Z,5.55
2019-03-26T05:45:09.746Z,6.53
2019-03-26T05:47:38.356Z,6.95
2019-03-26T05:50:08.621Z,7.05
2019-03-26T05:52:37.960Z,5.40
2019-03-26T05:55:08.753Z,5.60
2019-03-26T05:57:37.786Z,6.15
2019-03-26T06:00:10.723Z,7.75
2019-03-26T06:02:39.322Z,5.03
2019-03-26T06:05:08.103Z,5.42
2019-03-26T06:07:36.754Z,8.08
2019-03-26T06:10:09.844Z,7.00
2019-03-26T06:12:38.562Z,8.78
2019-03-26T06:15:08.424Z,6.72
2019-03-26T06:17:37.025Z,7.28
2019-03-26T06:20:07.217Z,7.75
2019-03-26T06:22:35.822Z,6.37
2019-03-26T06:25:07.085Z,8.08
2019-03-26T06:27:35.687Z,6.40
2019-03-26T06:30:08.224Z,8.55
2019-03-26T06:32:37.096Z,5.97
2019-03-26T06:35:10.053Z,6.95
2019-03-26T06:37:38.660Z,8.30
2019-03-26T06:40:09.873Z,9.38
2019-03-26T06:42:38.520Z,6.10
2019-03-26T06:45:11.185Z,8.45
2019-03-26T06:47:39.790Z,8.95
2019-03-26T06:50:10.864Z,8.08
2019-03-26T06:52:39.464Z,6.42
2019-03-26T06:55:08.679Z,8.33
2019-03-26T06:57:37.832Z,8.80
2019-03-26T07:00:09.545Z,11.70
2019-03-26T07:02:38.757Z,9.48
2019-03-26T07:05:08.481Z,10.58
2019-03-26T07:07:37.136Z,10.15
2019-03-26T07:10:08.311Z,9.25
2019-03-26T07:12:37.033Z,9.50
2019-03-26T07:15:09.685Z,8.30
2019-03-26T07:17:38.409Z,9.08
2019-03-26T07:20:08.624Z,8.23
2019-03-26T07:22:37.473Z,10.15
2019-03-26T07:25:09.028Z,9.58
2019-03-26T07:27:38.038Z,10.35
2019-03-26T07:30:09.494Z,9.70
2019-03-26T07:32:38.174Z,9.00
2019-03-26T07:35:07.940Z,9.68
2019-03-26T07:37:45.021Z,10.35
2019-03-26T07:40:08.212Z,13.22
2019-03-26T07:42:36.912Z,7.95
2019-03-26T07:45:07.502Z,7.50
2019-03-26T07:47:36.107Z,8.75
2019-03-26T07:50:06.767Z,9.00
2019-03-26T07:52:35.376Z,10.13
2019-03-26T07:55:06.232Z,9.05
2019-03-26T07:57:35.029Z,9.38
2019-03-26T08:00:09.743Z,9.80
2019-03-26T08:02:38.351Z,9.75
2019-03-26T08:05:10.423Z,9.75
2019-03-26T08:07:39.071Z,7.75
2019-03-26T08:10:09.690Z,9.40
2019-03-26T08:12:38.345Z,9.03
2019-03-26T08:15:08.468Z,7.97
2019-03-26T08:17:37.372Z,8.75
2019-03-26T08:20:08.706Z,6.65
2019-03-26T08:22:37.357Z,6.83
2019-03-26T08:25:07.973Z,5.62
2019-03-26T08:27:36.701Z,6.62
2019-03-26T08:30:08.701Z,5.67
2019-03-26T08:32:37.429Z,6.12
2019-03-26T08:35:06.936Z,6.17
2019-03-26T08:37:35.786Z,5.28
2019-03-26T08:40:07.442Z,6.78
2019-03-26T08:42:36.201Z,7.47
2019-03-26T08:45:09.871Z,6.65
2019-03-26T08:47:38.527Z,6.15
2019-03-26T08:50:08.441Z,7.03
2019-03-26T08:52:37.160Z,7.80
2019-03-26T08:55:09.783Z,7.10
2019-03-26T08:57:38.504Z,5.40
2019-03-26T09:00:09.571Z,4.62
2019-03-26T09:02:38.285Z,5.80
2019-03-26T09:05:08.076Z,4.83
2019-03-26T09:07:36.733Z,4.65
2019-03-26T09:10:09.038Z,3.87
2019-03-26T09:12:39.569Z,6.55
2019-03-26T09:15:10.284Z,6.33
2019-03-26T09:17:40.122Z,6.83
2019-03-26T09:20:10.075Z,4.62
2019-03-26T09:22:38.678Z,6.17
2019-03-26T09:25:07.940Z,5.47
2019-03-26T09:27:36.545Z,5.28
2019-03-26T09:30:08.689Z,6.53
2019-03-26T09:32:38.792Z,6.60
2019-03-26T09:35:10.273Z,5.45
2019-03-26T09:37:38.997Z,6.58
2019-03-26T09:40:09.416Z,6.15
2019-03-26T09:42:38.811Z,6.80
2019-03-26T09:45:09.926Z,4.65
2019-03-26T09:47:38.580Z,5.42
2019-03-26T09:50:10.091Z,7.90
2019-03-26T09:52:38.820Z,5.67
2019-03-26T09:55:08.933Z,4.15
2019-03-26T09:57:37.955Z,2.95
2019-03-26T10:00:11.656Z,6.12
2019-03-26T10:02:43.144Z,6.08
2019-03-26T10:05:11.218Z,5.22
2019-03-26T10:07:39.828Z,5.42
2019-03-26T10:10:09.474Z,4.72
2019-03-26T10:12:38.081Z,3.85
2019-03-26T10:15:06.933Z,2.83
2019-03-26T10:17:36.419Z,4.12
2019-03-26T10:20:07.244Z,2.83
2019-03-26T10:22:37.613Z,4.47
2019-03-26T10:25:10.850Z,4.45
2019-03-26T10:27:38.439Z,3.50
2019-03-26T10:30:10.877Z,4.60
2019-03-26T10:32:40.097Z,4.90
2019-03-26T10:35:09.344Z,5.58
2019-03-26T10:37:38.003Z,3.83
2019-03-26T10:40:08.420Z,3.40
2019-03-26T10:42:37.076Z,7.15
2019-03-26T10:45:07.455Z,2.98
2019-03-26T10:47:36.068Z,2.40
2019-03-26T10:50:07.087Z,3.30
2019-03-26T10:52:35.737Z,3.45
2019-03-26T10:55:06.156Z,2.75
2019-03-26T10:57:35.459Z,3.40
2019-03-26T11:00:06.875Z,1.70
2019-03-26T11:02:35.536Z,3.65
2019-03-26T11:05:07.247Z,2.40
2019-03-26T11:07:36.072Z,4.15
2019-03-26T11:10:08.612Z,3.02
2019-03-26T11:12:37.290Z,3.33
2019-03-26T11:15:10.296Z,3.37
2019-03-26T11:17:39.470Z,2.70
2019-03-26T11:20:10.338Z,2.60
2019-03-26T11:22:39.016Z,3.92
2019-03-26T11:25:11.956Z,3.62
2019-03-26T11:27:39.370Z,4.90
2019-03-26T11:30:08.872Z,7.17
2019-03-26T11:32:37.897Z,4.60
2019-03-26T11:35:08.157Z,5.37
2019-03-26T11:37:37.935Z,4.62
2019-03-26T11:40:07.830Z,3.33
2019-03-26T11:42:36.489Z,5.05
2019-03-26T11:45:09.604Z,4.10
2019-03-26T11:47:39.710Z,2.90
2019-03-26T11:50:09.766Z,5.45
2019-03-26T11:52:39.620Z,3.75
2019-03-26T11:55:10.189Z,2.55
2019-03-26T11:57:38.856Z,6.05
2019-03-26T12:00:12.694Z,5.30
2019-03-26T12:02:41.306Z,4.70
2019-03-26T12:05:10.267Z,2.98
2019-03-26T12:07:38.873Z,4.55
2019-03-26T12:10:08.538Z,3.12
2019-03-26T12:12:37.458Z,2.22
2019-03-26T12:15:08.026Z,4.37
2019-03-26T12:17:36.682Z,3.92
2019-03-26T12:20:09.408Z,4.00
2019-03-26T12:22:38.132Z,3.55
2019-03-26T12:25:07.651Z,2.25
2019-03-26T12:27:36.834Z,4.28
2019-03-26T12:30:09.166Z,5.47
2019-03-26T12:32:40.672Z,3.17
2019-03-26T12:35:09.374Z,2.58
2019-03-26T12:37:38.025Z,4.45
2019-03-26T12:40:07.669Z,2.45
2019-03-26T12:42:37.935Z,3.98
2019-03-26T12:45:07.716Z,4.80
2019-03-26T12:47:36.361Z,4.25
2019-03-26T12:50:07.222Z,1.67
2019-03-26T12:52:35.830Z,2.40
2019-03-26T12:55:06.097Z,2.17
2019-03-26T12:57:34.709Z,3.37
2019-03-26T13:00:04.942Z,2.33
2019-03-26T13:02:35.887Z,3.77
2019-03-26T13:05:07.308Z,1.65
2019-03-26T13:07:35.984Z,1.50
2019-03-26T13:10:13.720Z,2.25
2019-03-26T13:12:38.484Z,2.30
2019-03-26T13:15:07.777Z,3.02
2019-03-26T13:17:36.385Z,4.70
2019-03-26T13:20:06.648Z,3.50
2019-03-26T13:22:37.020Z,5.08
2019-03-26T13:25:07.732Z,3.85
2019-03-26T13:27:37.069Z,2.50
2019-03-26T13:30:08.615Z,2.90
2019-03-26T13:32:37.270Z,3.08
2019-03-26T13:35:09.133Z,2.60
2019-03-26T13:37:37.789Z,3.37
2019-03-26T13:40:07.331Z,2.80
2019-03-26T13:42:35.991Z,2.37
2019-03-26T13:45:07.060Z,3.98
2019-03-26T13:47:35.675Z,2.95
2019-03-26T13:50:07.244Z,2.05
2019-03-26T13:52:35.923Z,1.57
2019-03-26T13:55:07.791Z,2.83
2019-03-26T13:57:36.399Z,3.62
2019-03-26T14:00:11.983Z,2.50
2019-03-26T14:02:40.599Z,2.40
2019-03-26T14:05:27.895Z,2.20
2019-03-26T14:07:56.508Z,1.72
2019-03-26T14:10:25.164Z,4.05
2019-03-26T14:12:53.764Z,3.70
2019-03-26T14:15:22.416Z,2.60
2019-03-26T14:17:51.138Z,1.70
2019-03-26T14:20:20.381Z,2.83
2019-03-26T14:22:49.308Z,4.70
2019-03-26T14:25:17.987Z,2.85
2019-03-26T14:27:46.642Z,3.12
2019-03-26T14:30:16.659Z,2.30
2019-03-26T14:32:45.315Z,3.02
2019-03-26T14:35:13.994Z,2.30
2019-03-26T14:37:51.033Z,2.02
2019-03-26T14:40:13.263Z,2.45
2019-03-26T14:42:41.917Z,1.05
2019-03-26T14:45:10.808Z,3.85
2019-03-26T14:47:39.460Z,1.82
2019-03-26T14:50:08.723Z,2.25
2019-03-26T14:52:37.331Z,1.45
2019-03-26T14:55:07.357Z,2.15
2019-03-26T14:57:35.961Z,1.37
2019-03-26T15:00:07.992Z,2.22
2019-03-26T15:02:36.673Z,2.52
2019-03-26T15:05:07.842Z,2.60
2019-03-26T15:07:36.453Z,3.05
2019-03-26T15:10:07.123Z,1.87
2019-03-26T15:12:35.731Z,1.85
2019-03-26T15:15:05.938Z,1.90
2019-03-26T15:17:34.636Z,2.52
2019-03-26T15:20:05.779Z,2.45
2019-03-26T15:22:34.387Z,3.87
2019-03-26T15:25:03.979Z,2.95
2019-03-26T15:27:32.634Z,1.90
2019-03-26T15:30:01.236Z,3.12
2019-03-26T15:32:29.895Z,2.92
2019-03-26T15:34:58.501Z,2.62
2019-03-26T15:37:27.160Z,2.42
2019-03-26T15:39:55.775Z,3.08
2019-03-26T15:42:24.427Z,3.65
2019-03-26T15:44:53.032Z,2.25
2019-03-26T15:47:21.763Z,3.25
2019-03-26T15:49:50.372Z,3.05
2019-03-26T15:52:19.026Z,5.22
2019-03-26T15:54:47.628Z,3.25
2019-03-26T15:57:16.288Z,1.62
2019-03-26T15:59:44.895Z,4.25
2019-03-26T16:02:13.552Z,2.45
2019-03-26T16:04:42.155Z,3.33
2019-03-26T16:07:10.815Z,4.47
2019-03-26T16:09:39.470Z,2.67
2019-03-26T16:12:08.129Z,1.72
2019-03-26T16:14:36.781Z,4.85
2019-03-26T16:17:05.391Z,2.75
2019-03-26T16:19:36.469Z,5.33
2019-03-26T16:22:04.477Z,4.60
2019-03-26T16:24:33.130Z,2.80
2019-03-26T16:27:01.793Z,3.90
2019-03-26T16:29:30.389Z,2.17
2019-03-26T16:31:59.045Z,2.87
2019-03-26T16:34:27.653Z,2.62
2019-03-26T16:36:59.768Z,3.02
2019-03-26T16:39:26.703Z,3.33
2019-03-26T16:41:55.316Z,3.47
2019-03-26T16:44:23.944Z,2.65
2019-03-26T16:46:52.608Z,4.80
2019-03-26T16:49:21.271Z,3.87
2019-03-26T16:51:50.877Z,3.58
2019-03-26T16:54:19.702Z,2.80
2019-03-26T16:56:48.439Z,3.05
2019-03-26T16:59:17.047Z,2.62
2019-03-26T17:01:45.704Z,2.40
2019-03-26T17:04:14.353Z,3.12
2019-03-26T17:06:43.011Z,3.20
2019-03-26T17:09:11.673Z,4.22
2019-03-26T17:11:40.273Z,3.67
2019-03-26T17:14:08.932Z,3.40
2019-03-26T17:16:37.542Z,3.45
2019-03-26T17:19:06.189Z,1.12
2019-03-26T17:21:34.873Z,3.35
2019-03-26T17:24:03.678Z,2.27
2019-03-26T17:26:32.284Z,4.92
2019-03-26T17:29:00.897Z,1.15
2019-03-26T17:31:29.546Z,3.77
2019-03-26T17:33:58.201Z,2.08
2019-03-26T17:36:27.005Z,3.58
2019-03-26T17:38:55.663Z,4.20
2019-03-26T17:41:24.319Z,4.70
2019-03-26T17:43:52.922Z,4.00
2019-03-26T17:46:21.584Z,4.10
2019-03-26T17:48:50.197Z,3.85
2019-03-26T17:51:18.808Z,3.22
2019-03-26T17:53:47.466Z,2.77
2019-03-26T17:56:16.122Z,3.50
2019-03-26T17:58:44.778Z,2.37
2019-03-26T18:01:13.426Z,2.98
2019-03-26T18:03:42.034Z,3.05
2019-03-26T18:06:10.729Z,3.37
2019-03-26T18:08:39.335Z,4.95
2019-03-26T18:11:07.947Z,3.08
2019-03-26T18:13:36.604Z,4.22
2019-03-26T18:16:05.278Z,3.15
2019-03-26T18:18:33.886Z,3.98
2019-03-26T18:21:02.544Z,4.60
2019-03-26T18:23:31.155Z,4.37
2019-03-26T18:25:59.819Z,3.98
2019-03-26T18:28:28.419Z,2.87
2019-03-26T18:30:57.086Z,5.50
2019-03-26T18:33:25.695Z,2.47
2019-03-26T18:35:54.302Z,4.78
2019-03-26T18:38:22.955Z,4.03
2019-03-26T18:40:51.563Z,4.28
2019-03-26T18:43:20.217Z,3.52
2019-03-26T18:45:48.887Z,3.65
2019-03-26T18:48:17.547Z,3.27
2019-03-26T18:50:46.148Z,5.67
2019-03-26T18:53:14.808Z,3.62
2019-03-26T18:55:43.435Z,3.52
2019-03-26T18:58:12.142Z,3.10
2019-03-26T19:00:40.756Z,3.35
2019-03-26T19:03:09.588Z,4.25
2019-03-26T19:05:38.270Z,6.10
2019-03-26T19:08:06.946Z,3.42
2019-03-26T19:10:36.044Z,3.00
2019-03-26T19:13:17.983Z,3.30
2019-03-26T19:15:35.588Z,4.80
2019-03-26T19:18:04.651Z,3.95
2019-03-26T19:20:33.454Z,4.30
2019-03-26T19:23:02.165Z,3.17
2019-03-26T19:25:30.815Z,3.45
2019-03-26T19:27:59.419Z,4.12
2019-03-26T19:30:28.142Z,2.98
2019-03-26T19:32:57.850Z,3.37
2019-03-26T19:35:26.783Z,3.55
2019-03-26T19:37:55.390Z,4.67
2019-03-26T19:40:24.081Z,3.02
2019-03-26T19:42:52.730Z,4.95
2019-03-26T19:45:21.556Z,3.05
2019-03-26T19:47:50.288Z,3.47
2019-03-26T19:50:19.074Z,4.47
2019-03-26T19:52:47.723Z,2.87
2019-03-26T19:55:16.322Z,3.52
2019-03-26T19:57:44.985Z,4.25
2019-03-26T20:00:15.602Z,3.08
2019-03-26T20:02:44.252Z,4.28
2019-03-26T20:05:13.844Z,4.05
2019-03-26T20:07:42.456Z,2.67
2019-03-26T20:10:12.979Z,2.40
2019-03-26T20:12:41.614Z,2.37
2019-03-26T20:15:13.114Z,4.80
2019-03-26T20:17:41.728Z,3.35
2019-03-26T20:20:11.888Z,2.22
2019-03-26T20:22:40.498Z,3.70
2019-03-26T20:25:09.765Z,2.92
2019-03-26T20:27:38.440Z,3.90
2019-03-26T20:30:08.410Z,2.50
2019-03-26T20:32:37.019Z,3.60
2019-03-26T20:35:07.983Z,3.27
2019-03-26T20:37:36.583Z,2.62
2019-03-26T20:40:10.711Z,3.75
2019-03-26T20:42:39.370Z,3.40
2019-03-26T20:45:10.503Z,2.95
2019-03-26T20:47:39.605Z,3.00
2019-03-26T20:50:10.024Z,4.37
2019-03-26T20:52:38.735Z,3.52
2019-03-26T20:55:10.051Z,4.20
2019-03-26T20:57:38.706Z,3.00
2019-03-26T21:00:11.566Z,2.90
2019-03-26T21:02:40.213Z,2.60
2019-03-26T21:05:09.206Z,4.58
2019-03-26T21:07:38.451Z,6.30
2019-03-26T21:10:08.515Z,3.10
2019-03-26T21:12:37.188Z,4.28
2019-03-26T21:15:09.884Z,4.00
2019-03-26T21:17:38.677Z,4.25
2019-03-26T21:20:11.316Z,2.60
2019-03-26T21:22:39.923Z,4.53
2019-03-26T21:25:10.188Z,4.62
2019-03-26T21:27:38.850Z,2.02
2019-03-26T21:30:15.820Z,2.70
2019-03-26T21:32:44.318Z,3.72
2019-03-26T21:35:14.943Z,2.58
2019-03-26T21:37:43.597Z,3.08
2019-03-26T21:40:12.907Z,3.92
2019-03-26T21:42:41.563Z,2.58
2019-03-26T21:45:11.971Z,4.75
2019-03-26T21:47:40.696Z,2.83
2019-03-26T21:50:09.900Z,3.17
2019-03-26T21:52:38.613Z,2.70
2019-03-26T21:55:09.470Z,2.92
2019-03-26T21:57:38.135Z,4.17
2019-03-26T22:00:08.747Z,3.95
2019-03-26T22:02:37.744Z,2.92
2019-03-26T22:05:08.353Z,3.47
2019-03-26T22:07:37.082Z,3.50
2019-03-26T22:10:07.822Z,1.15
2019-03-26T22:12:36.464Z,3.00
2019-03-26T22:15:10.523Z,3.55
2019-03-26T22:17:39.200Z,2.27
2019-03-26T22:20:09.642Z,3.80
2019-03-26T22:22:38.240Z,3.42
2019-03-26T22:25:08.775Z,2.75
2019-03-26T22:27:37.425Z,2.87
2019-03-26T22:30:10.116Z,3.52
2019-03-26T22:32:38.716Z,3.15
2019-03-26T22:35:08.677Z,3.67
2019-03-26T22:37:37.288Z,3.75
2019-03-26T22:40:07.777Z,3.75
2019-03-26T22:42:36.426Z,4.08
2019-03-26T22:45:09.884Z,3.42
2019-03-26T22:47:41.476Z,4.08
2019-03-26T22:50:13.038Z,3.83
2019-03-26T22:52:41.703Z,2.77
2019-03-26T22:55:11.115Z,3.52
2019-03-26T22:57:39.882Z,6.25
2019-03-26T23:00:17.738Z,2.92
2019-03-26T23:02:46.662Z,4.33
2019-03-26T23:05:16.175Z,4.10
2019-03-26T23:07:44.888Z,4.03
2019-03-26T23:10:15.152Z,4.40
2019-03-26T23:12:43.825Z,3.25
2019-03-26T23:15:24.453Z,4.33
2019-03-26T23:17:53.124Z,3.98
2019-03-26T23:20:21.779Z,3.22
2019-03-26T23:22:50.506Z,2.95
2019-03-26T23:25:19.233Z,7.22
2019-03-26T23:27:47.900Z,4.30
2019-03-26T23:30:18.090Z,4.15
2019-03-26T23:32:46.754Z,2.72
2019-03-26T23:35:15.430Z,3.65
2019-03-26T23:37:44.351Z,3.70
2019-03-26T23:40:13.496Z,3.17
2019-03-26T23:42:42.201Z,3.30
2019-03-26T23:45:11.434Z,3.92
2019-03-26T23:47:40.083Z,5.30
2019-03-26T23:50:09.293Z,4.08
2019-03-26T23:52:38.118Z,5.87
2019-03-26T23:55:08.236Z,3.25
2019-03-26T23:57:37.654Z,4.05
